Create Tblcommutelog Verified Points Advance Search
| # | Trip ID | Id Commuter | Trip Date | Trip Num | Current Lat | Current Lng | Delta Distance | Current Time | Activity | Activity Confidence | Current Speed | |
|---|---|---|---|---|---|---|---|---|---|---|---|---|
| 70361 | 260123_784692_16658002_1555 | 784692 | (not set) | (not set) | 38.8656061 | -77.3275332 | 29.0599 | 2026-01-23 16:36:18 | in_vehicle | 100 | 15.360268938818 | |
| 70362 | 260123_786113_16654392_1555 | 786113 | (not set) | (not set) | 38.864876480924 | -77.331657294262 | 29.0454 | 2026-01-23 16:36:29 | in_vehicle | 100 | 15.65531484975 | |
| 70363 | 260123_789999_16658950_1557 | 789999 | (not set) | (not set) | 38.946371006326 | -77.064648791483 | 5.2034 | 2026-01-23 16:29:28 | on_foot | 100 | 0.7063220292006 | |
| 70364 | 260123_785674_6441454_1604 | 785674 | (not set) | (not set) | 39.2410525267 | -77.292842672495 | 17.6448 | 2026-01-23 16:29:36 | in_vehicle | 100 | 9.3788836535625 | |
| 70365 | 260123_778032_16645656_1629 | 778032 | (not set) | (not set) | 39.36209 | -76.7788129 | 0 | 2026-01-23 16:29:49 | still | 100 | 0.0089407851797545 | |
| 70366 | 260123_787145_16655582_1554 | 787145 | (not set) | (not set) | 38.828240316434 | -77.04609922599 | 7.0834 | 2026-01-23 16:29:49 | in_vehicle | 100 | -0.44703925898772 | |
| 70367 | 260123_714319_16576229_1605 | 714319 | (not set) | (not set) | 38.811387357083 | -77.21998314636 | 15.1263 | 2026-01-23 16:30:08 | in_vehicle | 100 | 7.939417239622 | |
| 70368 | 260123_770872_16638017_1605 | 770872 | (not set) | (not set) | 39.2135241 | -76.7354519 | 8.8502 | 2026-01-23 16:30:20 | in_vehicle | 100 | 7.9796507729309 | |
| 70369 | 260123_790094_16659070_1534 | 790094 | (not set) | (not set) | 39.156081848215 | -77.224625148878 | 23.616 | 2026-01-23 16:30:25 | in_vehicle | 100 | -0.44703925898772 | |
| 70370 | 260123_770872_16638017_1605 | 770872 | (not set) | (not set) | 39.2122838 | -76.7379418 | 9.0089 | 2026-01-23 16:30:35 | in_vehicle | 100 | 7.5192003361735 | |
| 70371 | 260123_791179_16660299_1537 | 791179 | (not set) | (not set) | 38.464395866667 | -77.406236833333 | 37.6769 | 2026-01-23 16:30:45 | in_vehicle | 100 | 0 | |
| 70372 | 260123_785264_16653381_1553 | 785264 | (not set) | (not set) | 38.95637218012 | -77.402724986144 | 22.1588 | 2026-01-23 16:30:55 | in_vehicle | 100 | 13.353062665963 | |
| 70373 | 260123_737706_16658988_1624 | 737706 | (not set) | (not set) | 39.3011256 | -76.5933345 | 0.0657 | 2026-01-23 16:31:03 | still | 100 | 5.4538789596502 | |
| 70374 | 260123_714319_16576229_1605 | 714319 | (not set) | (not set) | 38.811389504957 | -77.221440522119 | 15.205 | 2026-01-23 16:31:12 | in_vehicle | 100 | 0 | |
| 70375 | 260123_788116_16656678_1555 | 788116 | (not set) | (not set) | 38.869665471909 | -77.305885828385 | 27.639 | 2026-01-23 16:31:20 | still | 33 | 12.476865718347 | |
| 70376 | 260123_791179_16660299_1537 | 791179 | (not set) | (not set) | 38.464026660378 | -77.405828168556 | 37.7106 | 2026-01-23 16:31:28 | in_vehicle | 100 | 3.7014850644184 | |
| 70377 | 260123_714319_16576229_1605 | 714319 | (not set) | (not set) | 38.811319215227 | -77.224479616735 | 15.3691 | 2026-01-23 16:31:37 | in_vehicle | 100 | 4.6447379008825 | |
| 70378 | 260123_785264_16653381_1553 | 785264 | (not set) | (not set) | 38.961618476667 | -77.417529929715 | 23.0346 | 2026-01-23 16:31:45 | in_vehicle | 100 | 12.655681421942 | |
| 70379 | 260123_767309_16652068_1623 | 767309 | (not set) | (not set) | 38.900196637571 | -77.041777758734 | 0.5605 | 2026-01-23 16:31:51 | on_foot | 100 | 1.5333446583279 | |
| 70380 | 260123_785264_16653381_1553 | 785264 | (not set) | (not set) | 38.962458270734 | -77.421510199481 | 23.2567 | 2026-01-23 16:31:58 | in_vehicle | 100 | 12.128175096337 |